createdAt,value
2023-05-08T00:01:36.033Z,14.60
2023-05-08T00:04:03.482Z,14.60
2023-05-08T00:06:31.120Z,14.60
2023-05-08T00:08:58.316Z,14.50
2023-05-08T00:11:25.625Z,14.50
2023-05-08T00:13:52.934Z,14.50
2023-05-08T00:16:20.249Z,14.50
2023-05-08T00:18:47.995Z,14.50
2023-05-08T00:21:15.263Z,14.50
2023-05-08T00:23:42.488Z,14.50
2023-05-08T00:26:09.756Z,14.50
2023-05-08T00:28:37.192Z,14.40
2023-05-08T00:31:04.571Z,14.40
2023-05-08T00:33:31.908Z,14.40
2023-05-08T00:36:00.564Z,14.30
2023-05-08T00:38:30.062Z,14.30
2023-05-08T00:40:57.311Z,14.30
2023-05-08T00:43:28.079Z,14.30
2023-05-08T00:45:56.466Z,14.30
2023-05-08T00:48:24.615Z,14.30
2023-05-08T00:50:52.628Z,14.20
2023-05-08T00:53:22.430Z,14.20
2023-05-08T00:55:51.776Z,14.20
2023-05-08T00:58:19.582Z,14.20
2023-05-08T01:00:47.185Z,14.20
2023-05-08T01:03:15.072Z,14.20
2023-05-08T01:05:43.504Z,14.20
2023-05-08T01:08:10.846Z,14.10
2023-05-08T01:10:56.805Z,14.10
2023-05-08T01:13:26.893Z,14.00
2023-05-08T01:16:02.369Z,14.00
2023-05-08T01:18:36.376Z,14.00
2023-05-08T01:21:27.162Z,14.00
2023-05-08T01:24:09.812Z,14.10
2023-05-08T01:26:37.039Z,14.10
2023-05-08T01:29:04.348Z,14.10
2023-05-08T01:31:50.092Z,14.10
2023-05-08T01:34:21.368Z,14.10
2023-05-08T01:36:51.635Z,14.10
2023-05-08T01:39:20.467Z,14.00
2023-05-08T01:41:57.293Z,14.00
2023-05-08T01:44:27.895Z,14.00
2023-05-08T01:46:55.388Z,14.00
2023-05-08T01:49:27.470Z,14.00
2023-05-08T01:51:57.760Z,13.90
2023-05-08T01:54:26.896Z,13.90
2023-05-08T01:56:56.095Z,13.90
2023-05-08T01:59:24.566Z,13.90
2023-05-08T02:01:54.060Z,13.90
2023-05-08T02:04:22.363Z,13.80
2023-05-08T02:06:51.167Z,13.90
2023-05-08T02:09:19.250Z,13.80
2023-05-08T02:11:47.366Z,13.80
2023-05-08T02:14:15.240Z,13.80
2023-05-08T02:16:43.473Z,13.80
2023-05-08T02:19:11.675Z,13.70
2023-05-08T02:21:39.555Z,13.70
2023-05-08T02:24:06.851Z,13.60
2023-05-08T02:26:34.440Z,13.60
2023-05-08T02:29:03.184Z,13.70
2023-05-08T02:31:31.146Z,13.70
2023-05-08T02:33:59.640Z,13.60
2023-05-08T02:36:26.933Z,13.50
2023-05-08T02:38:56.260Z,13.50
2023-05-08T02:41:25.879Z,13.50
2023-05-08T02:43:53.204Z,13.50
2023-05-08T02:46:39.454Z,13.50
2023-05-08T02:49:17.139Z,13.50
2023-05-08T02:51:50.987Z,13.50
2023-05-08T02:54:21.811Z,13.40
2023-05-08T02:57:03.786Z,13.40
2023-05-08T02:59:37.178Z,13.40
2023-05-08T03:02:10.891Z,13.30
2023-05-08T03:04:41.857Z,13.30
2023-05-08T03:07:09.102Z,13.30
2023-05-08T03:09:47.827Z,13.20
2023-05-08T03:12:17.107Z,13.20
2023-05-08T03:14:53.008Z,13.10
2023-05-08T03:17:21.430Z,13.10
2023-05-08T03:19:50.394Z,13.00
2023-05-08T03:22:19.348Z,13.00
2023-05-08T03:24:47.273Z,13.10
2023-05-08T03:27:16.058Z,13.00
2023-05-08T03:29:43.977Z,13.00
2023-05-08T03:32:11.996Z,13.00
2023-05-08T03:34:40.496Z,13.10
2023-05-08T03:37:07.806Z,13.00
2023-05-08T03:39:35.152Z,13.10
2023-05-08T03:42:02.514Z,13.10
2023-05-08T03:44:29.943Z,13.00
2023-05-08T03:46:58.599Z,13.00
2023-05-08T03:49:29.186Z,13.00
2023-05-08T03:51:56.840Z,13.10
2023-05-08T03:54:25.558Z,13.00
2023-05-08T03:56:54.146Z,13.00
2023-05-08T03:59:29.806Z,13.00
2023-05-08T04:02:04.158Z,13.00
2023-05-08T04:04:39.833Z,12.90
2023-05-08T04:07:07.213Z,12.90
2023-05-08T04:09:44.635Z,12.90
2023-05-08T04:12:19.944Z,13.00
2023-05-08T04:14:56.926Z,13.00
2023-05-08T04:17:47.650Z,13.00
2023-05-08T04:20:17.401Z,12.90
2023-05-08T04:22:45.269Z,12.90
2023-05-08T04:25:14.183Z,12.90
2023-05-08T04:27:41.871Z,12.90
2023-05-08T04:30:09.906Z,12.90
2023-05-08T04:32:40.773Z,12.90
2023-05-08T04:35:09.198Z,12.90
2023-05-08T04:37:36.537Z,12.90
2023-05-08T04:40:05.080Z,12.90
2023-05-08T04:42:33.532Z,12.80
2023-05-08T04:45:00.770Z,12.80
2023-05-08T04:47:28.070Z,12.90
2023-05-08T04:49:55.479Z,12.80
2023-05-08T04:52:22.702Z,12.90
2023-05-08T04:54:49.911Z,12.90
2023-05-08T04:57:17.143Z,13.00
2023-05-08T04:59:44.524Z,13.00
2023-05-08T05:02:11.780Z,12.90
2023-05-08T05:04:39.119Z,13.00
2023-05-08T05:07:06.589Z,13.10
2023-05-08T05:09:37.250Z,13.10
2023-05-08T05:12:05.077Z,13.10
2023-05-08T05:14:32.743Z,13.10
2023-05-08T05:16:59.951Z,13.10
2023-05-08T05:19:27.191Z,13.10
2023-05-08T05:21:54.431Z,13.10
2023-05-08T05:24:21.662Z,13.10
2023-05-08T05:26:48.868Z,13.10
2023-05-08T05:29:16.226Z,13.20
2023-05-08T05:31:43.662Z,13.20
2023-05-08T05:34:10.959Z,13.20
2023-05-08T05:36:38.228Z,13.30
2023-05-08T05:39:05.443Z,13.30
2023-05-08T05:41:32.844Z,13.30
2023-05-08T05:44:00.144Z,13.20
2023-05-08T05:46:32.369Z,13.30
2023-05-08T05:48:59.763Z,13.20
2023-05-08T05:51:27.746Z,13.30
2023-05-08T05:53:55.094Z,13.30
2023-05-08T05:56:23.486Z,13.30
2023-05-08T05:58:50.767Z,13.30
2023-05-08T06:01:17.995Z,13.40
2023-05-08T06:03:45.417Z,13.40
2023-05-08T06:06:12.767Z,13.50
2023-05-08T06:08:40.021Z,13.60
2023-05-08T06:11:07.327Z,13.50
2023-05-08T06:13:34.682Z,13.60
2023-05-08T06:16:01.982Z,13.50
2023-05-08T06:18:29.319Z,13.50
2023-05-08T06:20:57.527Z,13.50
2023-05-08T06:23:24.969Z,13.50
2023-05-08T06:25:52.523Z,13.50
2023-05-08T06:28:20.119Z,13.50
2023-05-08T06:30:47.440Z,13.50
2023-05-08T06:33:14.714Z,13.60
2023-05-08T06:35:41.937Z,13.60
2023-05-08T06:38:09.423Z,13.60
2023-05-08T06:40:36.694Z,13.60
2023-05-08T06:43:04.032Z,13.60
2023-05-08T06:45:31.321Z,13.60
2023-05-08T06:47:58.651Z,13.60
2023-05-08T06:50:25.979Z,13.60
2023-05-08T06:52:53.115Z,13.60
2023-05-08T06:55:20.289Z,13.60
2023-05-08T06:57:47.647Z,13.70
2023-05-08T07:00:14.983Z,13.70
2023-05-08T07:02:42.258Z,13.60
2023-05-08T07:05:10.117Z,13.50
2023-05-08T07:07:37.653Z,13.50
2023-05-08T07:10:05.970Z,13.50
2023-05-08T07:12:35.046Z,13.50
2023-05-08T07:15:13.965Z,13.50
2023-05-08T07:17:45.767Z,13.50
2023-05-08T07:20:13.198Z,13.60
2023-05-08T07:22:40.543Z,13.60
2023-05-08T07:25:08.092Z,13.60
2023-05-08T07:27:35.961Z,13.60
2023-05-08T07:30:04.426Z,13.40
2023-05-08T07:32:31.877Z,13.40
2023-05-08T07:34:59.249Z,13.40
2023-05-08T07:37:26.843Z,13.40
2023-05-08T07:39:54.071Z,13.50
2023-05-08T07:42:21.349Z,13.60
2023-05-08T07:44:54.932Z,13.60
2023-05-08T07:47:22.823Z,13.70
2023-05-08T07:49:50.170Z,13.80
2023-05-08T07:52:17.481Z,13.80
2023-05-08T07:54:44.775Z,13.80
2023-05-08T07:57:11.995Z,13.80
2023-05-08T07:59:39.311Z,13.90
2023-05-08T08:02:07.399Z,13.90
2023-05-08T08:04:34.904Z,13.90
2023-05-08T08:07:02.246Z,13.90
2023-05-08T08:09:30.341Z,13.90
2023-05-08T08:11:58.369Z,13.90
2023-05-08T08:14:25.629Z,13.90
2023-05-08T08:16:53.055Z,13.90
2023-05-08T08:19:20.424Z,13.90
2023-05-08T08:21:47.797Z,14.00
2023-05-08T08:24:15.149Z,14.00
2023-05-08T08:26:42.391Z,14.00
2023-05-08T08:29:09.768Z,13.90
2023-05-08T08:31:37.129Z,13.90
2023-05-08T08:34:04.488Z,13.90
2023-05-08T08:36:32.654Z,13.90
2023-05-08T08:39:00.051Z,14.00
2023-05-08T08:41:28.069Z,14.10
2023-05-08T08:43:55.462Z,14.20
2023-05-08T08:46:26.684Z,14.10
2023-05-08T08:48:54.956Z,14.10
2023-05-08T08:51:25.340Z,14.10
2023-05-08T08:53:55.252Z,14.20
2023-05-08T08:56:23.643Z,14.30
2023-05-08T08:58:54.905Z,14.30
2023-05-08T09:01:24.079Z,14.40
2023-05-08T09:03:51.466Z,14.60
2023-05-08T09:06:19.490Z,14.70
2023-05-08T09:08:47.359Z,14.80
2023-05-08T09:11:14.624Z,14.80
2023-05-08T09:13:41.934Z,14.90
2023-05-08T09:16:09.266Z,14.90
2023-05-08T09:18:36.688Z,15.00
2023-05-08T09:21:05.836Z,14.90
2023-05-08T09:23:35.477Z,15.00
2023-05-08T09:26:03.048Z,14.90
2023-05-08T09:28:30.509Z,14.90
2023-05-08T09:30:58.579Z,14.80
2023-05-08T09:33:27.020Z,14.80
2023-05-08T09:35:55.157Z,14.80
2023-05-08T09:38:35.738Z,14.90
2023-05-08T09:41:10.186Z,14.90
2023-05-08T09:43:38.572Z,14.90
2023-05-08T09:46:25.610Z,15.00
2023-05-08T09:48:54.605Z,14.90
2023-05-08T09:51:24.150Z,14.90
2023-05-08T09:53:53.182Z,14.80
2023-05-08T09:56:37.274Z,14.80
2023-05-08T09:59:21.640Z,14.80
2023-05-08T10:01:49.784Z,14.90
2023-05-08T10:04:18.553Z,14.90
2023-05-08T10:06:57.031Z,14.80
2023-05-08T10:09:25.283Z,14.80
2023-05-08T10:11:54.587Z,14.70
2023-05-08T10:14:22.994Z,14.70
2023-05-08T10:16:52.914Z,14.70
2023-05-08T10:19:22.109Z,14.70
2023-05-08T10:21:50.906Z,14.70
2023-05-08T10:24:26.294Z,14.80
2023-05-08T10:27:07.114Z,15.00
2023-05-08T10:29:54.041Z,15.00
2023-05-08T10:32:21.777Z,15.00
2023-05-08T10:35:09.461Z,15.00
2023-05-08T10:37:38.573Z,15.00
2023-05-08T10:40:07.805Z,15.00
2023-05-08T10:42:35.900Z,15.10
2023-05-08T10:45:07.071Z,15.00
2023-05-08T10:47:49.724Z,15.10
2023-05-08T10:50:27.196Z,15.10
2023-05-08T10:52:59.693Z,15.10
2023-05-08T10:55:31.450Z,15.20
2023-05-08T10:58:13.018Z,15.30
2023-05-08T11:00:51.176Z,15.40
2023-05-08T11:03:31.416Z,15.60
2023-05-08T11:06:02.625Z,15.60
2023-05-08T11:08:34.338Z,15.50
2023-05-08T11:11:10.437Z,15.30
2023-05-08T11:13:43.543Z,15.30
2023-05-08T11:16:11.313Z,15.20
2023-05-08T11:19:22.778Z,15.20
2023-05-08T11:22:16.977Z,15.20
2023-05-08T11:25:09.112Z,15.30
2023-05-08T11:27:48.467Z,15.30
2023-05-08T11:30:36.185Z,15.30
2023-05-08T11:33:06.306Z,15.20
2023-05-08T11:35:52.119Z,15.20
2023-05-08T11:38:19.515Z,15.30
2023-05-08T11:40:51.847Z,15.30
2023-05-08T11:43:28.592Z,15.30
2023-05-08T11:45:59.892Z,15.20
2023-05-08T11:48:27.287Z,15.20
2023-05-08T11:50:59.025Z,15.20
2023-05-08T11:53:26.485Z,15.30
2023-05-08T11:55:54.390Z,15.30
2023-05-08T11:58:21.859Z,15.30
2023-05-08T12:00:50.274Z,15.20
2023-05-08T12:03:21.688Z,15.20
2023-05-08T12:05:51.440Z,15.20
2023-05-08T12:08:21.722Z,15.20
2023-05-08T12:10:53.541Z,15.10
2023-05-08T12:13:21.687Z,15.10
2023-05-08T12:15:49.892Z,15.10
2023-05-08T12:18:17.475Z,15.00
2023-05-08T12:20:45.060Z,15.00
2023-05-08T12:23:12.606Z,15.00
2023-05-08T12:25:40.177Z,14.80
2023-05-08T12:28:07.765Z,14.80
2023-05-08T12:30:35.186Z,14.80
2023-05-08T12:33:03.194Z,14.80
2023-05-08T12:35:31.014Z,14.80
2023-05-08T12:38:05.731Z,14.70
2023-05-08T12:40:34.063Z,14.80
2023-05-08T12:43:02.523Z,14.90
2023-05-08T12:45:30.946Z,14.90
2023-05-08T12:47:59.837Z,15.00
2023-05-08T12:50:27.693Z,15.10
2023-05-08T12:52:55.022Z,15.10
2023-05-08T12:55:25.497Z,15.10
2023-05-08T12:58:18.785Z,15.00
2023-05-08T13:00:50.056Z,15.00
2023-05-08T13:03:37.964Z,15.10
2023-05-08T13:06:05.761Z,15.20
2023-05-08T13:08:37.202Z,15.30
2023-05-08T13:11:05.808Z,15.30
2023-05-08T13:13:35.785Z,15.40
2023-05-08T13:16:06.837Z,15.40
2023-05-08T13:18:36.689Z,15.40
2023-05-08T13:21:04.197Z,15.50
2023-05-08T13:23:31.498Z,15.50
2023-05-08T13:25:58.798Z,15.50
2023-05-08T13:28:27.207Z,15.50
2023-05-08T13:30:54.497Z,15.60
2023-05-08T13:33:21.756Z,15.60
2023-05-08T13:35:49.078Z,15.60
2023-05-08T13:38:16.381Z,15.60
2023-05-08T13:40:43.657Z,15.50
2023-05-08T13:43:10.900Z,15.50
2023-05-08T13:45:38.377Z,15.50
2023-05-08T13:48:05.818Z,15.40
2023-05-08T13:50:33.160Z,15.40
2023-05-08T13:53:00.692Z,15.40
2023-05-08T13:55:28.179Z,15.40
2023-05-08T13:57:56.880Z,15.40
2023-05-08T14:00:26.594Z,15.40
2023-05-08T14:02:55.417Z,15.40
2023-05-08T14:05:22.710Z,15.40
2023-05-08T14:07:49.970Z,15.50
2023-05-08T14:10:17.291Z,15.50
2023-05-08T14:12:44.800Z,15.40
2023-05-08T14:15:12.546Z,15.40
2023-05-08T14:17:42.448Z,15.40
2023-05-08T14:20:11.705Z,15.40
2023-05-08T14:22:39.550Z,15.40
2023-05-08T14:25:07.358Z,15.50
2023-05-08T14:27:34.708Z,15.60
2023-05-08T14:30:02.013Z,15.60
2023-05-08T14:32:29.480Z,15.50
2023-05-08T14:34:56.798Z,15.50
2023-05-08T14:37:24.116Z,15.50
2023-05-08T14:39:54.123Z,15.40
2023-05-08T14:42:23.672Z,15.40
2023-05-08T14:44:51.576Z,15.50
2023-05-08T14:47:18.953Z,15.60
2023-05-08T14:49:46.226Z,15.60
2023-05-08T14:52:13.493Z,15.60
2023-05-08T14:54:40.983Z,15.60
2023-05-08T14:57:08.373Z,15.70
2023-05-08T14:59:35.872Z,15.70
2023-05-08T15:02:03.836Z,15.80
2023-05-08T15:04:31.306Z,15.80
2023-05-08T15:06:58.625Z,15.80
2023-05-08T15:09:25.873Z,15.70
2023-05-08T15:11:53.150Z,16.00
2023-05-08T15:14:20.572Z,15.80
2023-05-08T15:16:47.923Z,15.80
2023-05-08T15:19:15.174Z,15.90
2023-05-08T15:21:43.049Z,15.90
2023-05-08T15:24:10.457Z,15.90
2023-05-08T15:26:38.631Z,15.90
2023-05-08T15:29:05.900Z,16.00
2023-05-08T15:31:33.189Z,15.90
2023-05-08T15:34:00.512Z,15.90
2023-05-08T15:36:29.386Z,15.80
2023-05-08T15:38:56.724Z,15.80
2023-05-08T15:41:24.072Z,15.80
2023-05-08T15:43:51.416Z,15.80
2023-05-08T15:46:23.711Z,15.70
2023-05-08T15:48:51.293Z,15.50
2023-05-08T15:51:18.647Z,15.50
2023-05-08T15:53:46.252Z,15.40
2023-05-08T15:56:32.679Z,15.30
2023-05-08T15:59:18.257Z,15.40
2023-05-08T16:01:48.132Z,15.30
2023-05-08T16:04:15.683Z,15.20
2023-05-08T16:06:43.247Z,15.10
2023-05-08T16:09:10.663Z,15.00
2023-05-08T16:11:37.962Z,15.00
2023-05-08T16:14:05.479Z,15.00
2023-05-08T16:16:32.903Z,14.80
2023-05-08T16:19:00.442Z,14.80
2023-05-08T16:21:27.750Z,14.80
2023-05-08T16:23:56.044Z,14.80
2023-05-08T16:26:23.592Z,14.80
2023-05-08T16:28:50.950Z,14.70
2023-05-08T16:31:18.467Z,14.70
2023-05-08T16:33:45.836Z,14.60
2023-05-08T16:36:13.307Z,14.50
2023-05-08T16:38:42.072Z,14.50
2023-05-08T16:41:11.341Z,14.40
2023-05-08T16:43:39.144Z,14.30
2023-05-08T16:46:07.409Z,14.30
2023-05-08T16:48:34.845Z,14.30
2023-05-08T16:51:02.115Z,14.30
2023-05-08T16:53:29.409Z,14.20
2023-05-08T16:55:56.863Z,14.20
2023-05-08T16:58:26.004Z,14.30
2023-05-08T17:00:53.592Z,14.30
2023-05-08T17:03:21.152Z,14.30
2023-05-08T17:05:48.591Z,14.30
2023-05-08T17:08:16.025Z,14.30
2023-05-08T17:10:43.273Z,14.30
2023-05-08T17:13:10.660Z,14.30
2023-05-08T17:15:38.157Z,14.20
2023-05-08T17:18:05.589Z,14.30
2023-05-08T17:20:40.456Z,14.30
2023-05-08T17:23:08.270Z,14.20
2023-05-08T17:25:35.632Z,14.30
2023-05-08T17:28:03.095Z,14.30
2023-05-08T17:30:31.803Z,14.30
2023-05-08T17:32:59.145Z,14.30
2023-05-08T17:35:26.481Z,14.30
2023-05-08T17:37:53.925Z,14.20
2023-05-08T17:40:21.317Z,14.10
2023-05-08T17:42:48.703Z,14.00
2023-05-08T17:45:16.053Z,13.90
2023-05-08T17:47:43.621Z,13.90
2023-05-08T17:50:11.398Z,13.90
2023-05-08T17:52:38.848Z,13.80
2023-05-08T17:55:06.363Z,13.80
2023-05-08T17:57:33.681Z,13.80
2023-05-08T18:00:01.192Z,13.80
2023-05-08T18:02:28.593Z,13.80
2023-05-08T18:04:56.242Z,13.80
2023-05-08T18:07:23.709Z,13.80
2023-05-08T18:09:51.017Z,13.90
2023-05-08T18:12:18.325Z,13.90
2023-05-08T18:14:45.867Z,13.80
2023-05-08T18:17:15.456Z,13.90
2023-05-08T18:19:42.779Z,13.90
2023-05-08T18:22:09.992Z,14.00
2023-05-08T18:24:37.298Z,13.90
2023-05-08T18:27:04.636Z,13.90
2023-05-08T18:29:32.255Z,14.00
2023-05-08T18:31:59.542Z,14.00
2023-05-08T18:34:26.950Z,14.00
2023-05-08T18:36:54.931Z,14.00
2023-05-08T18:39:23.948Z,14.00
2023-05-08T18:41:51.328Z,14.00
2023-05-08T18:44:18.570Z,14.00
2023-05-08T18:46:46.544Z,13.90
2023-05-08T18:49:14.018Z,14.00
2023-05-08T18:51:42.129Z,14.00
2023-05-08T18:54:09.386Z,14.00
2023-05-08T18:56:37.470Z,14.00
2023-05-08T18:59:04.807Z,14.00
2023-05-08T19:01:32.219Z,14.00
2023-05-08T19:04:00.430Z,14.00
2023-05-08T19:06:27.777Z,14.00
2023-05-08T19:08:55.174Z,14.00
2023-05-08T19:11:22.738Z,14.00
2023-05-08T19:13:52.334Z,14.10
2023-05-08T19:16:20.291Z,14.10
2023-05-08T19:18:48.317Z,14.10
2023-05-08T19:21:15.617Z,14.10
2023-05-08T19:23:42.974Z,14.10
2023-05-08T19:26:10.268Z,14.10
2023-05-08T19:28:38.488Z,14.00
2023-05-08T19:31:05.723Z,14.10
2023-05-08T19:33:32.998Z,14.10
2023-05-08T19:36:00.330Z,14.10
2023-05-08T19:38:27.984Z,14.10
2023-05-08T19:40:57.683Z,14.10
2023-05-08T19:43:25.948Z,14.10
2023-05-08T19:45:53.455Z,14.10
2023-05-08T19:48:20.885Z,14.10
2023-05-08T19:50:48.265Z,14.10
2023-05-08T19:53:15.618Z,14.10
2023-05-08T19:55:42.999Z,14.10
2023-05-08T19:58:10.282Z,14.10
2023-05-08T20:00:37.631Z,14.10
2023-05-08T20:03:05.331Z,14.10
2023-05-08T20:05:33.551Z,14.10
2023-05-08T20:08:00.917Z,14.10
2023-05-08T20:10:28.433Z,14.10
2023-05-08T20:12:56.632Z,14.20
2023-05-08T20:15:24.073Z,14.10
2023-05-08T20:17:51.443Z,14.10
2023-05-08T20:20:18.806Z,14.10
2023-05-08T20:22:46.087Z,14.10
2023-05-08T20:25:13.660Z,14.10
2023-05-08T20:27:41.302Z,14.10
2023-05-08T20:30:09.226Z,14.10
2023-05-08T20:32:36.912Z,14.20
2023-05-08T20:35:04.376Z,14.10
2023-05-08T20:37:34.925Z,14.20
2023-05-08T20:40:05.181Z,14.10
2023-05-08T20:42:32.919Z,14.10
2023-05-08T20:45:00.479Z,14.10
2023-05-08T20:47:27.934Z,14.20
2023-05-08T20:49:55.439Z,14.10
2023-05-08T20:52:23.529Z,14.10
2023-05-08T20:54:50.865Z,14.10
2023-05-08T20:57:18.452Z,14.10
2023-05-08T20:59:48.825Z,14.10
2023-05-08T21:02:16.193Z,14.20
2023-05-08T21:04:43.564Z,14.10
2023-05-08T21:07:10.829Z,14.10
2023-05-08T21:09:38.335Z,14.10
2023-05-08T21:12:05.969Z,14.10
2023-05-08T21:14:34.442Z,14.00
2023-05-08T21:17:01.731Z,14.00
2023-05-08T21:19:30.532Z,14.00
2023-05-08T21:21:57.851Z,14.00
2023-05-08T21:24:25.770Z,13.90
2023-05-08T21:26:53.462Z,13.90
2023-05-08T21:29:21.020Z,13.90
2023-05-08T21:31:48.333Z,13.90
2023-05-08T21:34:16.502Z,13.90
2023-05-08T21:36:43.822Z,13.90
2023-05-08T21:39:11.240Z,13.90
2023-05-08T21:41:38.626Z,13.90
2023-05-08T21:44:05.873Z,13.90
2023-05-08T21:46:33.201Z,13.90
2023-05-08T21:49:00.476Z,13.80
2023-05-08T21:51:27.738Z,13.80
2023-05-08T21:53:54.970Z,13.80
2023-05-08T21:56:22.799Z,13.80
2023-05-08T21:58:50.392Z,13.80
2023-05-08T22:01:17.730Z,13.80
2023-05-08T22:03:45.090Z,13.80
2023-05-08T22:06:12.432Z,13.80
2023-05-08T22:08:39.699Z,13.80
2023-05-08T22:11:06.923Z,13.70
2023-05-08T22:13:34.215Z,13.70
2023-05-08T22:16:01.719Z,13.70
2023-05-08T22:18:29.071Z,13.70
2023-05-08T22:20:56.318Z,13.70
2023-05-08T22:23:23.588Z,13.60
2023-05-08T22:25:51.335Z,13.60
2023-05-08T22:28:18.574Z,13.70
2023-05-08T22:30:46.347Z,13.60
2023-05-08T22:33:13.640Z,13.70
2023-05-08T22:35:40.894Z,13.60
2023-05-08T22:38:08.157Z,13.60
2023-05-08T22:40:35.525Z,13.60
2023-05-08T22:43:02.784Z,13.60
2023-05-08T22:45:30.112Z,13.60
2023-05-08T22:47:57.591Z,13.50
2023-05-08T22:50:24.942Z,13.60
2023-05-08T22:52:52.203Z,13.60
2023-05-08T22:55:19.470Z,13.60
2023-05-08T22:57:46.819Z,13.60
2023-05-08T23:00:16.246Z,13.60
2023-05-08T23:02:43.731Z,13.60
2023-05-08T23:05:11.138Z,13.60
2023-05-08T23:07:38.484Z,13.60
2023-05-08T23:10:06.488Z,13.60
2023-05-08T23:12:33.783Z,13.60
2023-05-08T23:15:01.050Z,13.60
2023-05-08T23:17:28.459Z,13.60
2023-05-08T23:19:55.771Z,13.60
2023-05-08T23:22:23.048Z,13.60
2023-05-08T23:24:50.474Z,13.60
2023-05-08T23:27:17.738Z,13.60
2023-05-08T23:29:44.939Z,13.60
2023-05-08T23:32:13.066Z,13.60
2023-05-08T23:34:42.012Z,13.60
2023-05-08T23:37:09.906Z,13.60
2023-05-08T23:39:41.069Z,13.60
2023-05-08T23:42:08.617Z,13.60
2023-05-08T23:44:35.918Z,13.60
2023-05-08T23:47:03.188Z,13.60
2023-05-08T23:49:30.513Z,13.70
2023-05-08T23:51:57.827Z,13.60
2023-05-08T23:54:25.673Z,13.60
2023-05-08T23:56:52.974Z,13.60
2023-05-08T23:59:20.294Z,13.60
